sensor_id;sensor_type;location;lat;lon;timestamp;P1;durP1;ratioP1;P2;durP2;ratioP2
50779;SDS011;36748;37.428;-121.972;2022-08-23T00:01:22;5.95;;;1.25;;
50779;SDS011;36748;37.428;-121.972;2022-08-23T00:03:50;12.85;;;0.80;;
50779;SDS011;36748;37.428;-121.972;2022-08-23T00:06:17;15.38;;;1.13;;
50779;SDS011;36748;37.428;-121.972;2022-08-23T00:08:44;5.55;;;0.80;;
50779;SDS011;36748;37.428;-121.972;2022-08-23T00:13:50;4.32;;;0.68;;
50779;SDS011;36748;37.428;-121.972;2022-08-23T00:16:17;5.00;;;0.90;;
50779;SDS011;36748;37.428;-121.972;2022-08-23T00:18:43;6.55;;;1.15;;
50779;SDS011;36748;37.428;-121.972;2022-08-23T00:21:10;11.25;;;1.42;;
50779;SDS011;36748;37.428;-121.972;2022-08-23T00:23:37;5.90;;;0.85;;
50779;SDS011;36748;37.428;-121.972;2022-08-23T00:26:04;5.93;;;0.50;;
50779;SDS011;36748;37.428;-121.972;2022-08-23T00:28:30;5.75;;;1.00;;
50779;SDS011;36748;37.428;-121.972;2022-08-23T00:30:57;11.60;;;1.10;;
50779;SDS011;36748;37.428;-121.972;2022-08-23T00:33:24;15.52;;;1.35;;
50779;SDS011;36748;37.428;-121.972;2022-08-23T00:35:51;18.27;;;1.55;;
50779;SDS011;36748;37.428;-121.972;2022-08-23T00:38:17;23.52;;;1.42;;
50779;SDS011;36748;37.428;-121.972;2022-08-23T00:40:44;19.92;;;1.33;;
50779;SDS011;36748;37.428;-121.972;2022-08-23T00:43:13;10.07;;;1.02;;
50779;SDS011;36748;37.428;-121.972;2022-08-23T00:46:02;8.07;;;0.95;;
50779;SDS011;36748;37.428;-121.972;2022-08-23T00:49:00;6.93;;;1.23;;
50779;SDS011;36748;37.428;-121.972;2022-08-23T00:51:31;10.27;;;1.33;;
50779;SDS011;36748;37.428;-121.972;2022-08-23T00:54:00;15.77;;;1.00;;
50779;SDS011;36748;37.428;-121.972;2022-08-23T00:56:27;11.27;;;1.13;;
50779;SDS011;36748;37.428;-121.972;2022-08-23T00:58:56;3.70;;;0.57;;
50779;SDS011;36748;37.428;-121.972;2022-08-23T01:01:22;10.90;;;0.65;;
50779;SDS011;36748;37.428;-121.972;2022-08-23T01:03:50;7.43;;;0.60;;
50779;SDS011;36748;37.428;-121.972;2022-08-23T01:09:17;5.40;;;0.68;;
50779;SDS011;36748;37.428;-121.972;2022-08-23T01:11:56;3.78;;;0.30;;
50779;SDS011;36748;37.428;-121.972;2022-08-23T01:14:39;9.15;;;0.52;;
50779;SDS011;36748;37.428;-121.972;2022-08-23T01:17:27;3.63;;;0.50;;
50779;SDS011;36748;37.428;-121.972;2022-08-23T01:20:07;1.75;;;0.50;;
50779;SDS011;36748;37.428;-121.972;2022-08-23T01:22:39;10.57;;;0.50;;
50779;SDS011;36748;37.428;-121.972;2022-08-23T01:25:13;6.93;;;0.70;;
50779;SDS011;36748;37.428;-121.972;2022-08-23T01:27:42;10.52;;;0.52;;
50779;SDS011;36748;37.428;-121.972;2022-08-23T01:30:10;7.30;;;0.57;;
50779;SDS011;36748;37.428;-121.972;2022-08-23T01:32:48;3.00;;;0.65;;
50779;SDS011;36748;37.428;-121.972;2022-08-23T01:35:17;4.63;;;0.73;;
50779;SDS011;36748;37.428;-121.972;2022-08-23T01:37:44;8.38;;;0.90;;
50779;SDS011;36748;37.428;-121.972;2022-08-23T01:40:11;6.00;;;1.25;;
50779;SDS011;36748;37.428;-121.972;2022-08-23T01:42:38;18.70;;;2.60;;
50779;SDS011;36748;37.428;-121.972;2022-08-23T01:45:11;4.38;;;0.88;;
50779;SDS011;36748;37.428;-121.972;2022-08-23T01:47:38;15.52;;;2.70;;
50779;SDS011;36748;37.428;-121.972;2022-08-23T01:50:06;5.80;;;0.85;;
50779;SDS011;36748;37.428;-121.972;2022-08-23T01:52:33;5.97;;;1.17;;
50779;SDS011;36748;37.428;-121.972;2022-08-23T01:55:00;1.77;;;0.47;;
50779;SDS011;36748;37.428;-121.972;2022-08-23T01:57:28;9.55;;;0.93;;
50779;SDS011;36748;37.428;-121.972;2022-08-23T01:59:55;4.63;;;0.93;;
50779;SDS011;36748;37.428;-121.972;2022-08-23T02:02:21;6.55;;;0.85;;
50779;SDS011;36748;37.428;-121.972;2022-08-23T02:04:48;4.93;;;0.50;;
50779;SDS011;36748;37.428;-121.972;2022-08-23T02:07:14;3.78;;;0.50;;
50779;SDS011;36748;37.428;-121.972;2022-08-23T02:09:40;1.88;;;0.40;;
50779;SDS011;36748;37.428;-121.972;2022-08-23T02:12:06;3.72;;;0.63;;
50779;SDS011;36748;37.428;-121.972;2022-08-23T02:14:32;4.07;;;0.45;;
50779;SDS011;36748;37.428;-121.972;2022-08-23T02:16:59;3.40;;;0.40;;
50779;SDS011;36748;37.428;-121.972;2022-08-23T02:19:25;1.98;;;0.20;;
50779;SDS011;36748;37.428;-121.972;2022-08-23T02:21:52;0.65;;;0.20;;
50779;SDS011;36748;37.428;-121.972;2022-08-23T02:24:20;1.58;;;0.50;;
50779;SDS011;36748;37.428;-121.972;2022-08-23T02:26:48;5.13;;;0.40;;
50779;SDS011;36748;37.428;-121.972;2022-08-23T02:29:17;1.23;;;0.40;;
50779;SDS011;36748;37.428;-121.972;2022-08-23T02:31:44;0.75;;;0.10;;
50779;SDS011;36748;37.428;-121.972;2022-08-23T02:34:11;1.85;;;0.43;;
50779;SDS011;36748;37.428;-121.972;2022-08-23T02:36:38;0.90;;;0.25;;
50779;SDS011;36748;37.428;-121.972;2022-08-23T02:39:05;0.45;;;0.20;;
50779;SDS011;36748;37.428;-121.972;2022-08-23T02:41:32;2.17;;;0.30;;
50779;SDS011;36748;37.428;-121.972;2022-08-23T02:43:59;0.68;;;0.20;;
50779;SDS011;36748;37.428;-121.972;2022-08-23T02:46:25;0.55;;;0.20;;
50779;SDS011;36748;37.428;-121.972;2022-08-23T02:48:51;0.98;;;0.35;;
50779;SDS011;36748;37.428;-121.972;2022-08-23T02:51:18;0.85;;;0.20;;
50779;SDS011;36748;37.428;-121.972;2022-08-23T02:53:44;0.50;;;0.20;;
50779;SDS011;36748;37.428;-121.972;2022-08-23T02:56:11;0.80;;;0.20;;
50779;SDS011;36748;37.428;-121.972;2022-08-23T02:58:39;2.58;;;0.30;;
50779;SDS011;36748;37.428;-121.972;2022-08-23T03:01:13;1.70;;;0.22;;
50779;SDS011;36748;37.428;-121.972;2022-08-23T03:03:40;1.07;;;0.30;;
50779;SDS011;36748;37.428;-121.972;2022-08-23T03:06:06;1.27;;;0.30;;
50779;SDS011;36748;37.428;-121.972;2022-08-23T03:08:32;0.65;;;0.30;;
50779;SDS011;36748;37.428;-121.972;2022-08-23T03:10:59;0.50;;;0.20;;
50779;SDS011;36748;37.428;-121.972;2022-08-23T03:13:25;1.40;;;0.22;;
50779;SDS011;36748;37.428;-121.972;2022-08-23T03:15:51;1.05;;;0.28;;
50779;SDS011;36748;37.428;-121.972;2022-08-23T03:18:17;0.68;;;0.40;;
50779;SDS011;36748;37.428;-121.972;2022-08-23T03:20:43;2.15;;;0.50;;
50779;SDS011;36748;37.428;-121.972;2022-08-23T03:23:11;1.02;;;0.40;;
50779;SDS011;36748;37.428;-121.972;2022-08-23T03:25:37;0.88;;;0.35;;
50779;SDS011;36748;37.428;-121.972;2022-08-23T03:28:04;0.45;;;0.30;;
50779;SDS011;36748;37.428;-121.972;2022-08-23T03:30:31;1.80;;;0.70;;
50779;SDS011;36748;37.428;-121.972;2022-08-23T03:32:58;1.27;;;0.50;;
50779;SDS011;36748;37.428;-121.972;2022-08-23T03:35:25;2.67;;;0.40;;
50779;SDS011;36748;37.428;-121.972;2022-08-23T03:37:52;1.17;;;0.47;;
50779;SDS011;36748;37.428;-121.972;2022-08-23T03:40:18;0.68;;;0.38;;
50779;SDS011;36748;37.428;-121.972;2022-08-23T03:42:47;4.65;;;0.68;;
50779;SDS011;36748;37.428;-121.972;2022-08-23T03:45:15;0.88;;;0.43;;
50779;SDS011;36748;37.428;-121.972;2022-08-23T03:47:41;1.60;;;0.63;;
50779;SDS011;36748;37.428;-121.972;2022-08-23T03:50:08;0.77;;;0.47;;
50779;SDS011;36748;37.428;-121.972;2022-08-23T03:52:35;1.95;;;0.52;;
50779;SDS011;36748;37.428;-121.972;2022-08-23T03:55:01;1.75;;;0.60;;
50779;SDS011;36748;37.428;-121.972;2022-08-23T03:57:27;1.48;;;0.43;;
50779;SDS011;36748;37.428;-121.972;2022-08-23T03:59:54;1.55;;;0.43;;
50779;SDS011;36748;37.428;-121.972;2022-08-23T04:02:20;1.15;;;0.50;;
50779;SDS011;36748;37.428;-121.972;2022-08-23T04:04:46;1.55;;;0.50;;
50779;SDS011;36748;37.428;-121.972;2022-08-23T04:07:19;1.63;;;0.50;;
50779;SDS011;36748;37.428;-121.972;2022-08-23T04:09:45;0.88;;;0.45;;
50779;SDS011;36748;37.428;-121.972;2022-08-23T04:12:12;3.35;;;0.55;;
50779;SDS011;36748;37.428;-121.972;2022-08-23T04:14:38;5.35;;;0.75;;
50779;SDS011;36748;37.428;-121.972;2022-08-23T04:17:04;2.42;;;0.45;;
50779;SDS011;36748;37.428;-121.972;2022-08-23T04:19:31;1.98;;;0.85;;
50779;SDS011;36748;37.428;-121.972;2022-08-23T04:21:57;2.28;;;0.50;;
50779;SDS011;36748;37.428;-121.972;2022-08-23T04:24:23;3.78;;;0.70;;
50779;SDS011;36748;37.428;-121.972;2022-08-23T04:26:49;2.10;;;0.77;;
50779;SDS011;36748;37.428;-121.972;2022-08-23T04:29:16;0.88;;;0.40;;
50779;SDS011;36748;37.428;-121.972;2022-08-23T04:31:43;7.05;;;1.02;;
50779;SDS011;36748;37.428;-121.972;2022-08-23T04:34:10;1.73;;;0.50;;
50779;SDS011;36748;37.428;-121.972;2022-08-23T04:36:38;2.25;;;0.70;;
50779;SDS011;36748;37.428;-121.972;2022-08-23T04:39:06;2.00;;;0.75;;
50779;SDS011;36748;37.428;-121.972;2022-08-23T04:41:32;2.97;;;0.57;;
50779;SDS011;36748;37.428;-121.972;2022-08-23T04:44:17;2.15;;;0.60;;
50779;SDS011;36748;37.428;-121.972;2022-08-23T04:46:43;1.63;;;0.55;;
50779;SDS011;36748;37.428;-121.972;2022-08-23T04:49:10;1.88;;;0.82;;
50779;SDS011;36748;37.428;-121.972;2022-08-23T04:51:36;3.45;;;0.70;;
50779;SDS011;36748;37.428;-121.972;2022-08-23T04:54:03;3.78;;;0.80;;
50779;SDS011;36748;37.428;-121.972;2022-08-23T04:56:29;1.50;;;0.57;;
50779;SDS011;36748;37.428;-121.972;2022-08-23T04:58:56;1.15;;;0.65;;
50779;SDS011;36748;37.428;-121.972;2022-08-23T05:01:22;3.03;;;0.90;;
50779;SDS011;36748;37.428;-121.972;2022-08-23T05:03:52;1.95;;;0.70;;
50779;SDS011;36748;37.428;-121.972;2022-08-23T05:06:19;1.33;;;0.63;;
50779;SDS011;36748;37.428;-121.972;2022-08-23T05:08:46;2.15;;;0.80;;
50779;SDS011;36748;37.428;-121.972;2022-08-23T05:11:12;1.30;;;0.55;;
50779;SDS011;36748;37.428;-121.972;2022-08-23T05:13:38;1.75;;;0.77;;
50779;SDS011;36748;37.428;-121.972;2022-08-23T05:16:05;1.85;;;0.77;;
50779;SDS011;36748;37.428;-121.972;2022-08-23T05:18:31;1.77;;;0.82;;
50779;SDS011;36748;37.428;-121.972;2022-08-23T05:20:58;1.40;;;0.73;;
50779;SDS011;36748;37.428;-121.972;2022-08-23T05:23:25;1.05;;;0.60;;
50779;SDS011;36748;37.428;-121.972;2022-08-23T05:25:52;2.92;;;1.05;;
50779;SDS011;36748;37.428;-121.972;2022-08-23T05:28:20;1.75;;;0.75;;
50779;SDS011;36748;37.428;-121.972;2022-08-23T05:30:55;1.77;;;0.80;;
50779;SDS011;36748;37.428;-121.972;2022-08-23T05:33:27;2.17;;;0.90;;
50779;SDS011;36748;37.428;-121.972;2022-08-23T05:35:55;1.80;;;0.98;;
50779;SDS011;36748;37.428;-121.972;2022-08-23T05:38:22;1.65;;;0.60;;
50779;SDS011;36748;37.428;-121.972;2022-08-23T05:40:49;1.30;;;0.85;;
50779;SDS011;36748;37.428;-121.972;2022-08-23T05:43:17;1.08;;;0.50;;
50779;SDS011;36748;37.428;-121.972;2022-08-23T05:45:44;1.63;;;0.75;;
50779;SDS011;36748;37.428;-121.972;2022-08-23T05:48:11;1.52;;;0.75;;
50779;SDS011;36748;37.428;-121.972;2022-08-23T05:50:37;1.35;;;0.75;;
50779;SDS011;36748;37.428;-121.972;2022-08-23T05:53:04;1.38;;;0.88;;
50779;SDS011;36748;37.428;-121.972;2022-08-23T05:55:31;1.08;;;0.82;;
50779;SDS011;36748;37.428;-121.972;2022-08-23T05:57:57;1.90;;;1.17;;
50779;SDS011;36748;37.428;-121.972;2022-08-23T06:00:23;1.45;;;0.90;;
50779;SDS011;36748;37.428;-121.972;2022-08-23T06:02:49;1.77;;;0.95;;
50779;SDS011;36748;37.428;-121.972;2022-08-23T06:05:16;1.88;;;1.17;;
50779;SDS011;36748;37.428;-121.972;2022-08-23T06:07:43;2.03;;;0.90;;
50779;SDS011;36748;37.428;-121.972;2022-08-23T06:10:09;2.15;;;0.90;;
50779;SDS011;36748;37.428;-121.972;2022-08-23T06:12:36;2.30;;;0.80;;
50779;SDS011;36748;37.428;-121.972;2022-08-23T06:15:02;3.13;;;0.90;;
50779;SDS011;36748;37.428;-121.972;2022-08-23T06:17:28;1.67;;;1.20;;
50779;SDS011;36748;37.428;-121.972;2022-08-23T06:19:55;3.72;;;1.27;;
50779;SDS011;36748;37.428;-121.972;2022-08-23T06:22:21;1.70;;;0.93;;
50779;SDS011;36748;37.428;-121.972;2022-08-23T06:24:48;1.50;;;0.90;;
50779;SDS011;36748;37.428;-121.972;2022-08-23T06:27:14;2.45;;;1.00;;
50779;SDS011;36748;37.428;-121.972;2022-08-23T06:29:40;3.55;;;1.20;;
50779;SDS011;36748;37.428;-121.972;2022-08-23T06:32:07;1.25;;;0.88;;
50779;SDS011;36748;37.428;-121.972;2022-08-23T06:34:34;4.70;;;1.30;;
50779;SDS011;36748;37.428;-121.972;2022-08-23T06:37:06;3.58;;;1.08;;
50779;SDS011;36748;37.428;-121.972;2022-08-23T06:39:34;1.67;;;0.93;;
50779;SDS011;36748;37.428;-121.972;2022-08-23T06:42:05;2.28;;;1.25;;
50779;SDS011;36748;37.428;-121.972;2022-08-23T06:44:38;2.25;;;1.00;;
50779;SDS011;36748;37.428;-121.972;2022-08-23T06:47:05;1.38;;;0.90;;
50779;SDS011;36748;37.428;-121.972;2022-08-23T06:49:32;2.30;;;1.10;;
50779;SDS011;36748;37.428;-121.972;2022-08-23T06:51:58;3.55;;;1.13;;
50779;SDS011;36748;37.428;-121.972;2022-08-23T06:54:27;1.85;;;0.90;;
50779;SDS011;36748;37.428;-121.972;2022-08-23T06:56:55;1.85;;;0.80;;
50779;SDS011;36748;37.428;-121.972;2022-08-23T06:59:22;2.08;;;1.00;;
50779;SDS011;36748;37.428;-121.972;2022-08-23T07:01:49;1.27;;;0.70;;
50779;SDS011;36748;37.428;-121.972;2022-08-23T07:04:30;1.63;;;0.98;;
50779;SDS011;36748;37.428;-121.972;2022-08-23T07:06:58;2.38;;;1.02;;
50779;SDS011;36748;37.428;-121.972;2022-08-23T07:09:26;2.85;;;1.15;;
50779;SDS011;36748;37.428;-121.972;2022-08-23T07:11:53;4.57;;;1.33;;
50779;SDS011;36748;37.428;-121.972;2022-08-23T07:14:20;2.88;;;1.00;;
50779;SDS011;36748;37.428;-121.972;2022-08-23T07:16:51;2.33;;;0.93;;
50779;SDS011;36748;37.428;-121.972;2022-08-23T07:19:20;1.17;;;0.80;;
50779;SDS011;36748;37.428;-121.972;2022-08-23T07:21:48;2.80;;;1.15;;
50779;SDS011;36748;37.428;-121.972;2022-08-23T07:24:15;2.88;;;1.10;;
50779;SDS011;36748;37.428;-121.972;2022-08-23T07:26:42;2.50;;;0.82;;
50779;SDS011;36748;37.428;-121.972;2022-08-23T07:29:09;2.08;;;0.90;;
50779;SDS011;36748;37.428;-121.972;2022-08-23T07:31:38;2.60;;;0.80;;
50779;SDS011;36748;37.428;-121.972;2022-08-23T07:34:06;2.33;;;0.88;;
50779;SDS011;36748;37.428;-121.972;2022-08-23T07:36:33;1.90;;;1.00;;
50779;SDS011;36748;37.428;-121.972;2022-08-23T07:39:00;2.15;;;1.10;;
50779;SDS011;36748;37.428;-121.972;2022-08-23T07:41:28;2.20;;;1.05;;
50779;SDS011;36748;37.428;-121.972;2022-08-23T07:43:59;1.92;;;0.80;;
50779;SDS011;36748;37.428;-121.972;2022-08-23T07:46:26;1.63;;;0.90;;
50779;SDS011;36748;37.428;-121.972;2022-08-23T07:48:55;1.25;;;0.60;;
50779;SDS011;36748;37.428;-121.972;2022-08-23T07:51:22;1.95;;;1.10;;
50779;SDS011;36748;37.428;-121.972;2022-08-23T07:53:49;1.88;;;1.10;;
50779;SDS011;36748;37.428;-121.972;2022-08-23T07:56:16;1.83;;;0.98;;
50779;SDS011;36748;37.428;-121.972;2022-08-23T07:58:44;2.63;;;1.20;;
50779;SDS011;36748;37.428;-121.972;2022-08-23T08:01:14;2.10;;;1.23;;
50779;SDS011;36748;37.428;-121.972;2022-08-23T08:03:47;1.85;;;1.10;;
50779;SDS011;36748;37.428;-121.972;2022-08-23T08:06:18;2.45;;;1.30;;
50779;SDS011;36748;37.428;-121.972;2022-08-23T08:09:04;2.35;;;1.10;;
50779;SDS011;36748;37.428;-121.972;2022-08-23T08:11:31;2.35;;;1.13;;
50779;SDS011;36748;37.428;-121.972;2022-08-23T08:13:58;2.00;;;1.27;;
50779;SDS011;36748;37.428;-121.972;2022-08-23T08:16:32;5.40;;;1.40;;
50779;SDS011;36748;37.428;-121.972;2022-08-23T08:19:03;1.45;;;1.00;;
50779;SDS011;36748;37.428;-121.972;2022-08-23T08:21:32;2.85;;;1.42;;
50779;SDS011;36748;37.428;-121.972;2022-08-23T08:23:59;3.17;;;1.45;;
50779;SDS011;36748;37.428;-121.972;2022-08-23T08:26:25;2.38;;;1.15;;
50779;SDS011;36748;37.428;-121.972;2022-08-23T08:28:52;1.80;;;0.70;;
50779;SDS011;36748;37.428;-121.972;2022-08-23T08:31:21;2.00;;;0.90;;
50779;SDS011;36748;37.428;-121.972;2022-08-23T08:33:48;3.38;;;1.30;;
50779;SDS011;36748;37.428;-121.972;2022-08-23T08:36:32;1.92;;;1.10;;
50779;SDS011;36748;37.428;-121.972;2022-08-23T08:39:03;1.90;;;0.90;;
50779;SDS011;36748;37.428;-121.972;2022-08-23T08:41:39;1.60;;;0.95;;
50779;SDS011;36748;37.428;-121.972;2022-08-23T08:46:53;2.63;;;1.00;;
50779;SDS011;36748;37.428;-121.972;2022-08-23T08:49:32;2.85;;;1.08;;
50779;SDS011;36748;37.428;-121.972;2022-08-23T08:54:49;2.63;;;0.90;;
50779;SDS011;36748;37.428;-121.972;2022-08-23T08:57:29;1.65;;;0.70;;
50779;SDS011;36748;37.428;-121.972;2022-08-23T09:00:00;2.60;;;1.15;;
50779;SDS011;36748;37.428;-121.972;2022-08-23T09:02:37;2.53;;;1.00;;
50779;SDS011;36748;37.428;-121.972;2022-08-23T09:05:14;2.42;;;1.10;;
50779;SDS011;36748;37.428;-121.972;2022-08-23T09:10:46;1.40;;;0.95;;
50779;SDS011;36748;37.428;-121.972;2022-08-23T09:13:43;1.52;;;0.73;;
50779;SDS011;36748;37.428;-121.972;2022-08-23T09:19:09;1.27;;;0.73;;
50779;SDS011;36748;37.428;-121.972;2022-08-23T09:21:55;2.20;;;0.90;;
50779;SDS011;36748;37.428;-121.972;2022-08-23T09:24:27;1.88;;;1.00;;
50779;SDS011;36748;37.428;-121.972;2022-08-23T09:26:55;2.38;;;0.85;;
50779;SDS011;36748;37.428;-121.972;2022-08-23T09:29:29;1.83;;;0.80;;
50779;SDS011;36748;37.428;-121.972;2022-08-23T09:32:00;2.17;;;1.05;;
50779;SDS011;36748;37.428;-121.972;2022-08-23T09:34:47;2.03;;;0.90;;
50779;SDS011;36748;37.428;-121.972;2022-08-23T09:37:21;1.30;;;0.90;;
50779;SDS011;36748;37.428;-121.972;2022-08-23T09:39:50;2.42;;;1.05;;
50779;SDS011;36748;37.428;-121.972;2022-08-23T09:42:31;1.45;;;1.00;;
50779;SDS011;36748;37.428;-121.972;2022-08-23T09:45:04;2.00;;;1.00;;
50779;SDS011;36748;37.428;-121.972;2022-08-23T09:47:34;2.28;;;0.77;;
50779;SDS011;36748;37.428;-121.972;2022-08-23T09:50:15;1.55;;;0.80;;
50779;SDS011;36748;37.428;-121.972;2022-08-23T09:52:44;1.08;;;0.70;;
50779;SDS011;36748;37.428;-121.972;2022-08-23T09:58:21;2.33;;;0.80;;
50779;SDS011;36748;37.428;-121.972;2022-08-23T10:03:41;1.65;;;0.90;;
50779;SDS011;36748;37.428;-121.972;2022-08-23T10:06:07;2.35;;;0.75;;
50779;SDS011;36748;37.428;-121.972;2022-08-23T10:08:37;2.10;;;0.80;;
50779;SDS011;36748;37.428;-121.972;2022-08-23T10:11:17;1.65;;;0.80;;
50779;SDS011;36748;37.428;-121.972;2022-08-23T10:13:48;0.90;;;0.80;;
50779;SDS011;36748;37.428;-121.972;2022-08-23T10:19:05;1.30;;;0.80;;
50779;SDS011;36748;37.428;-121.972;2022-08-23T10:26:54;2.22;;;0.90;;
50779;SDS011;36748;37.428;-121.972;2022-08-23T10:32:06;1.48;;;0.98;;
50779;SDS011;36748;37.428;-121.972;2022-08-23T10:40:24;0.70;;;0.50;;
50779;SDS011;36748;37.428;-121.972;2022-08-23T10:43:05;1.08;;;0.55;;
50779;SDS011;36748;37.428;-121.972;2022-08-23T10:45:39;1.20;;;0.73;;
50779;SDS011;36748;37.428;-121.972;2022-08-23T10:50:50;1.55;;;0.70;;
50779;SDS011;36748;37.428;-121.972;2022-08-23T10:53:20;3.45;;;0.88;;
50779;SDS011;36748;37.428;-121.972;2022-08-23T10:55:51;1.73;;;0.70;;
50779;SDS011;36748;37.428;-121.972;2022-08-23T11:01:08;1.60;;;0.50;;
50779;SDS011;36748;37.428;-121.972;2022-08-23T11:03:42;1.67;;;0.95;;
50779;SDS011;36748;37.428;-121.972;2022-08-23T11:06:42;1.60;;;0.85;;
50779;SDS011;36748;37.428;-121.972;2022-08-23T11:09:34;3.90;;;0.80;;
50779;SDS011;36748;37.428;-121.972;2022-08-23T11:13:03;0.90;;;0.70;;
50779;SDS011;36748;37.428;-121.972;2022-08-23T11:23:20;0.77;;;0.50;;
50779;SDS011;36748;37.428;-121.972;2022-08-23T11:26:09;0.63;;;0.40;;
50779;SDS011;36748;37.428;-121.972;2022-08-23T11:31:34;1.10;;;0.90;;
50779;SDS011;36748;37.428;-121.972;2022-08-23T11:34:23;1.40;;;0.80;;
50779;SDS011;36748;37.428;-121.972;2022-08-23T11:42:43;0.88;;;0.68;;
50779;SDS011;36748;37.428;-121.972;2022-08-23T11:45:42;0.93;;;0.60;;
50779;SDS011;36748;37.428;-121.972;2022-08-23T11:51:28;0.77;;;0.60;;
50779;SDS011;36748;37.428;-121.972;2022-08-23T12:03:03;1.42;;;0.60;;
50779;SDS011;36748;37.428;-121.972;2022-08-23T12:05:25;0.70;;;0.52;;
50779;SDS011;36748;37.428;-121.972;2022-08-23T12:11:04;0.70;;;0.50;;
50779;SDS011;36748;37.428;-121.972;2022-08-23T12:16:08;1.95;;;0.50;;
50779;SDS011;36748;37.428;-121.972;2022-08-23T12:19:23;1.00;;;0.50;;
50779;SDS011;36748;37.428;-121.972;2022-08-23T12:21:39;1.83;;;0.73;;
50779;SDS011;36748;37.428;-121.972;2022-08-23T12:24:14;2.33;;;0.60;;
50779;SDS011;36748;37.428;-121.972;2022-08-23T12:40:21;1.20;;;0.60;;
50779;SDS011;36748;37.428;-121.972;2022-08-23T12:43:09;1.05;;;0.60;;
50779;SDS011;36748;37.428;-121.972;2022-08-23T12:45:40;0.68;;;0.60;;
50779;SDS011;36748;37.428;-121.972;2022-08-23T12:48:10;1.15;;;0.43;;
50779;SDS011;36748;37.428;-121.972;2022-08-23T12:50:38;0.70;;;0.70;;
50779;SDS011;36748;37.428;-121.972;2022-08-23T12:53:11;1.65;;;0.50;;
50779;SDS011;36748;37.428;-121.972;2022-08-23T12:55:40;0.73;;;0.43;;
50779;SDS011;36748;37.428;-121.972;2022-08-23T12:58:08;0.50;;;0.38;;
50779;SDS011;36748;37.428;-121.972;2022-08-23T13:00:41;0.50;;;0.40;;
50779;SDS011;36748;37.428;-121.972;2022-08-23T13:03:18;1.00;;;0.60;;
50779;SDS011;36748;37.428;-121.972;2022-08-23T13:05:54;0.40;;;0.40;;
50779;SDS011;36748;37.428;-121.972;2022-08-23T13:08:22;1.45;;;0.50;;
50779;SDS011;36748;37.428;-121.972;2022-08-23T13:10:52;0.40;;;0.40;;
50779;SDS011;36748;37.428;-121.972;2022-08-23T13:13:20;0.30;;;0.30;;
50779;SDS011;36748;37.428;-121.972;2022-08-23T13:18:24;0.98;;;0.50;;
50779;SDS011;36748;37.428;-121.972;2022-08-23T13:23:51;1.35;;;0.55;;
50779;SDS011;36748;37.428;-121.972;2022-08-23T13:29:05;0.50;;;0.30;;
50779;SDS011;36748;37.428;-121.972;2022-08-23T13:37:05;0.57;;;0.50;;
50779;SDS011;36748;37.428;-121.972;2022-08-23T13:39:48;0.63;;;0.50;;
50779;SDS011;36748;37.428;-121.972;2022-08-23T13:42:54;0.50;;;0.50;;
50779;SDS011;36748;37.428;-121.972;2022-08-23T13:45:33;0.55;;;0.40;;
50779;SDS011;36748;37.428;-121.972;2022-08-23T13:48:11;0.40;;;0.30;;
50779;SDS011;36748;37.428;-121.972;2022-08-23T13:50:40;1.00;;;0.60;;
50779;SDS011;36748;37.428;-121.972;2022-08-23T13:53:07;1.67;;;0.50;;
50779;SDS011;36748;37.428;-121.972;2022-08-23T13:55:38;0.55;;;0.43;;
50779;SDS011;36748;37.428;-121.972;2022-08-23T13:58:28;2.58;;;0.68;;
50779;SDS011;36748;37.428;-121.972;2022-08-23T14:00:55;1.30;;;0.60;;
50779;SDS011;36748;37.428;-121.972;2022-08-23T14:03:23;0.65;;;0.55;;
50779;SDS011;36748;37.428;-121.972;2022-08-23T14:05:49;0.70;;;0.50;;
50779;SDS011;36748;37.428;-121.972;2022-08-23T14:08:17;0.70;;;0.50;;
50779;SDS011;36748;37.428;-121.972;2022-08-23T14:10:43;0.73;;;0.40;;
50779;SDS011;36748;37.428;-121.972;2022-08-23T14:13:13;1.58;;;0.60;;
50779;SDS011;36748;37.428;-121.972;2022-08-23T14:15:42;3.88;;;0.70;;
50779;SDS011;36748;37.428;-121.972;2022-08-23T14:18:09;5.05;;;0.88;;
50779;SDS011;36748;37.428;-121.972;2022-08-23T14:20:36;1.13;;;0.70;;
50779;SDS011;36748;37.428;-121.972;2022-08-23T14:23:02;3.00;;;0.75;;
50779;SDS011;36748;37.428;-121.972;2022-08-23T14:25:29;1.38;;;0.50;;
50779;SDS011;36748;37.428;-121.972;2022-08-23T14:27:55;1.92;;;0.60;;
50779;SDS011;36748;37.428;-121.972;2022-08-23T14:32:52;1.77;;;0.90;;
50779;SDS011;36748;37.428;-121.972;2022-08-23T14:35:19;2.05;;;0.75;;
50779;SDS011;36748;37.428;-121.972;2022-08-23T14:37:45;2.47;;;1.10;;
50779;SDS011;36748;37.428;-121.972;2022-08-23T14:40:12;2.15;;;0.80;;
50779;SDS011;36748;37.428;-121.972;2022-08-23T14:42:38;1.55;;;1.00;;
50779;SDS011;36748;37.428;-121.972;2022-08-23T14:45:05;1.67;;;0.93;;
50779;SDS011;36748;37.428;-121.972;2022-08-23T14:47:32;1.92;;;1.00;;
50779;SDS011;36748;37.428;-121.972;2022-08-23T14:49:59;4.10;;;0.80;;
50779;SDS011;36748;37.428;-121.972;2022-08-23T14:52:26;4.75;;;0.90;;
50779;SDS011;36748;37.428;-121.972;2022-08-23T14:54:53;4.80;;;0.90;;
50779;SDS011;36748;37.428;-121.972;2022-08-23T14:57:19;2.17;;;0.93;;
50779;SDS011;36748;37.428;-121.972;2022-08-23T14:59:45;3.03;;;0.80;;
50779;SDS011;36748;37.428;-121.972;2022-08-23T15:02:11;3.85;;;0.70;;
50779;SDS011;36748;37.428;-121.972;2022-08-23T15:04:39;1.13;;;0.70;;
50779;SDS011;36748;37.428;-121.972;2022-08-23T15:07:06;0.90;;;0.80;;
50779;SDS011;36748;37.428;-121.972;2022-08-23T15:09:32;1.20;;;0.70;;
50779;SDS011;36748;37.428;-121.972;2022-08-23T15:11:59;2.15;;;0.75;;
50779;SDS011;36748;37.428;-121.972;2022-08-23T15:14:25;1.23;;;0.80;;
50779;SDS011;36748;37.428;-121.972;2022-08-23T15:16:51;3.95;;;1.13;;
50779;SDS011;36748;37.428;-121.972;2022-08-23T15:19:17;1.67;;;0.60;;
50779;SDS011;36748;37.428;-121.972;2022-08-23T15:21:43;1.73;;;0.82;;
50779;SDS011;36748;37.428;-121.972;2022-08-23T15:24:09;0.50;;;0.50;;
50779;SDS011;36748;37.428;-121.972;2022-08-23T15:26:35;1.92;;;0.68;;
50779;SDS011;36748;37.428;-121.972;2022-08-23T15:29:02;1.00;;;0.80;;
50779;SDS011;36748;37.428;-121.972;2022-08-23T15:31:28;6.95;;;1.00;;
50779;SDS011;36748;37.428;-121.972;2022-08-23T15:33:54;1.13;;;0.93;;
50779;SDS011;36748;37.428;-121.972;2022-08-23T15:36:20;2.03;;;0.70;;
50779;SDS011;36748;37.428;-121.972;2022-08-23T15:38:47;2.58;;;0.77;;
50779;SDS011;36748;37.428;-121.972;2022-08-23T15:41:19;3.83;;;0.70;;
50779;SDS011;36748;37.428;-121.972;2022-08-23T15:43:46;0.70;;;0.70;;
50779;SDS011;36748;37.428;-121.972;2022-08-23T15:46:16;2.47;;;0.85;;
50779;SDS011;36748;37.428;-121.972;2022-08-23T15:48:49;1.02;;;0.60;;
50779;SDS011;36748;37.428;-121.972;2022-08-23T15:51:28;2.28;;;1.13;;
50779;SDS011;36748;37.428;-121.972;2022-08-23T15:53:55;2.05;;;0.90;;
50779;SDS011;36748;37.428;-121.972;2022-08-23T15:56:24;1.35;;;0.73;;
50779;SDS011;36748;37.428;-121.972;2022-08-23T15:58:55;2.60;;;1.00;;
50779;SDS011;36748;37.428;-121.972;2022-08-23T16:01:21;0.77;;;0.60;;
50779;SDS011;36748;37.428;-121.972;2022-08-23T16:03:49;2.17;;;0.90;;
50779;SDS011;36748;37.428;-121.972;2022-08-23T16:06:16;1.77;;;0.90;;
50779;SDS011;36748;37.428;-121.972;2022-08-23T16:08:43;1.67;;;0.80;;
50779;SDS011;36748;37.428;-121.972;2022-08-23T16:11:12;3.53;;;1.10;;
50779;SDS011;36748;37.428;-121.972;2022-08-23T16:13:40;3.60;;;1.30;;